createdAt,value
2018-11-10T00:02:09.738Z,24.17
2018-11-10T00:04:38.132Z,63.67
2018-11-10T00:07:06.564Z,27.80
2018-11-10T00:09:34.647Z,28.60
2018-11-10T00:12:03.074Z,25.20
2018-11-10T00:14:31.454Z,25.50
2018-11-10T00:16:59.876Z,28.03
2018-11-10T00:19:28.300Z,29.27
2018-11-10T00:21:56.680Z,32.17
2018-11-10T00:24:24.828Z,27.37
2018-11-10T00:26:53.242Z,26.60
2018-11-10T00:29:21.673Z,22.87
2018-11-10T00:31:50.092Z,22.07
2018-11-10T00:34:18.491Z,26.00
2018-11-10T00:36:47.008Z,28.73
2018-11-10T00:39:15.616Z,23.70
2018-11-10T00:41:44.035Z,27.13
2018-11-10T00:44:12.471Z,25.90
2018-11-10T00:46:40.876Z,24.73
2018-11-10T00:49:09.285Z,36.03
2018-11-10T00:51:37.691Z,27.30
2018-11-10T00:54:06.136Z,28.50
2018-11-10T00:56:34.546Z,34.17
2018-11-10T00:59:03.001Z,49.73
2018-11-10T01:01:31.475Z,43.00
2018-11-10T01:03:59.587Z,27.17
2018-11-10T01:06:27.988Z,33.87
2018-11-10T01:08:56.397Z,30.13
2018-11-10T01:11:24.812Z,33.33
2018-11-10T01:13:53.203Z,51.35
2018-11-10T01:16:21.303Z,39.10
2018-11-10T01:18:49.702Z,41.43
2018-11-10T01:21:18.119Z,26.27
2018-11-10T01:23:46.512Z,44.13
2018-11-10T01:26:14.887Z,32.57
2018-11-10T01:28:43.294Z,35.43
2018-11-10T01:31:11.706Z,28.33
2018-11-10T01:33:40.155Z,36.50
2018-11-10T01:36:08.561Z,39.33
2018-11-10T01:38:36.679Z,39.97
2018-11-10T01:41:05.233Z,34.30
2018-11-10T01:43:33.355Z,41.93
2018-11-10T01:46:01.756Z,34.33
2018-11-10T01:48:30.195Z,48.27
2018-11-10T01:50:58.299Z,27.13
2018-11-10T01:53:26.408Z,32.97
2018-11-10T01:55:54.806Z,21.53
2018-11-10T01:58:23.219Z,35.30
2018-11-10T02:00:51.633Z,35.83
2018-11-10T02:03:20.080Z,36.00
2018-11-10T02:05:48.528Z,51.40
2018-11-10T02:08:16.940Z,32.10
2018-11-10T02:10:45.360Z,29.90
2018-11-10T02:13:13.783Z,50.23
2018-11-10T02:15:42.211Z,39.83
2018-11-10T02:18:10.604Z,33.33
2018-11-10T02:20:39.083Z,36.17
2018-11-10T02:23:07.520Z,35.20
2018-11-10T02:25:35.671Z,34.80
2018-11-10T02:28:04.144Z,52.10
2018-11-10T02:30:32.586Z,42.77
2018-11-10T02:33:00.970Z,41.73
2018-11-10T02:35:29.408Z,44.83
2018-11-10T02:37:57.822Z,36.83
2018-11-10T02:40:26.272Z,28.50
2018-11-10T02:42:54.668Z,30.63
2018-11-10T02:45:23.096Z,29.60
2018-11-10T02:47:51.476Z,43.63
2018-11-10T02:50:19.886Z,26.77
2018-11-10T02:52:48.304Z,26.97
2018-11-10T02:55:16.744Z,29.10
2018-11-10T02:57:45.128Z,32.03
2018-11-10T03:00:14.496Z,20.37
2018-11-10T03:02:42.882Z,18.23
2018-11-10T03:05:11.744Z,25.17
2018-11-10T03:07:40.222Z,27.47
2018-11-10T03:10:08.997Z,34.20
2018-11-10T03:12:37.871Z,20.37
2018-11-10T03:15:06.905Z,35.53
2018-11-10T03:17:35.347Z,25.50
2018-11-10T03:20:03.889Z,17.40
2018-11-10T03:22:32.293Z,33.43
2018-11-10T03:25:00.688Z,36.60
2018-11-10T03:27:29.127Z,26.43
2018-11-10T03:29:57.303Z,36.00
2018-11-10T03:32:25.681Z,38.97
2018-11-10T03:34:53.791Z,22.47
2018-11-10T03:37:22.263Z,26.37
2018-11-10T03:39:50.653Z,22.45
2018-11-10T03:42:19.047Z,24.00
2018-11-10T03:44:47.479Z,19.10
2018-11-10T03:47:15.871Z,29.67
2018-11-10T03:49:44.283Z,23.17
2018-11-10T03:52:12.681Z,33.90
2018-11-10T03:54:41.116Z,29.67
2018-11-10T03:57:09.512Z,33.33
2018-11-10T03:59:37.971Z,32.50
2018-11-10T04:02:06.496Z,40.80
2018-11-10T04:04:34.899Z,32.53
2018-11-10T04:07:03.019Z,36.37
2018-11-10T04:09:31.410Z,24.47
2018-11-10T04:11:59.866Z,26.90
2018-11-10T04:14:28.263Z,21.93
2018-11-10T04:16:56.659Z,17.77
2018-11-10T04:19:25.043Z,17.37
2018-11-10T04:21:53.455Z,18.37
2018-11-10T04:24:21.834Z,17.80
2018-11-10T04:26:50.260Z,21.40
2018-11-10T04:29:18.664Z,21.57
2018-11-10T04:31:47.095Z,45.85
2018-11-10T04:34:15.327Z,31.52
2018-11-10T04:36:43.731Z,21.50
2018-11-10T04:39:12.144Z,20.23
2018-11-10T04:41:40.548Z,19.00
2018-11-10T04:44:08.931Z,17.40
2018-11-10T04:46:37.391Z,15.57
2018-11-10T04:49:06.021Z,18.77
2018-11-10T04:51:34.427Z,16.33
2018-11-10T04:54:02.845Z,15.73
2018-11-10T04:56:31.234Z,23.63
2018-11-10T04:58:59.647Z,14.45
2018-11-10T05:01:28.105Z,15.70
2018-11-10T05:03:56.478Z,16.80
2018-11-10T05:06:24.875Z,15.13
2018-11-10T05:08:53.256Z,17.73
2018-11-10T05:11:21.667Z,19.37
2018-11-10T05:13:50.079Z,16.63
2018-11-10T05:16:18.200Z,12.10
2018-11-10T05:18:46.633Z,16.00
2018-11-10T05:21:14.750Z,20.60
2018-11-10T05:23:43.148Z,30.57
2018-11-10T05:26:11.552Z,27.93
2018-11-10T05:28:39.924Z,24.77
2018-11-10T05:31:08.345Z,19.30
2018-11-10T05:33:36.772Z,26.23
2018-11-10T05:36:05.401Z,20.20
2018-11-10T05:38:33.772Z,16.43
2018-11-10T05:41:02.152Z,20.10
2018-11-10T05:43:30.295Z,23.87
2018-11-10T05:45:58.683Z,22.73
2018-11-10T05:48:27.292Z,29.50
2018-11-10T05:50:55.691Z,24.93
2018-11-10T05:53:24.108Z,17.50
2018-11-10T05:55:52.213Z,19.13
2018-11-10T05:58:20.655Z,15.60
2018-11-10T06:00:49.039Z,17.83
2018-11-10T06:03:17.214Z,24.17
2018-11-10T06:05:45.555Z,23.47
2018-11-10T06:08:13.983Z,21.77
2018-11-10T06:10:42.099Z,32.37
2018-11-10T06:13:10.521Z,33.03
2018-11-10T06:15:38.896Z,37.10
2018-11-10T06:18:07.319Z,21.93
2018-11-10T06:20:35.702Z,36.17
2018-11-10T06:23:04.112Z,24.60
2018-11-10T06:25:32.486Z,18.87
2018-11-10T06:28:00.597Z,28.30
2018-11-10T06:30:28.713Z,22.93
2018-11-10T06:32:57.138Z,30.07
2018-11-10T06:35:25.563Z,15.83
2018-11-10T06:37:53.971Z,22.57
2018-11-10T06:40:22.512Z,17.93
2018-11-10T06:42:50.927Z,14.27
2018-11-10T06:45:19.311Z,18.30
2018-11-10T06:47:47.715Z,16.37
2018-11-10T06:50:16.098Z,20.83
2018-11-10T06:52:44.487Z,23.60
2018-11-10T06:55:12.583Z,23.07
2018-11-10T06:57:41.025Z,24.70
2018-11-10T07:00:10.099Z,16.17
2018-11-10T07:02:38.503Z,21.77
2018-11-10T07:05:07.136Z,25.47
2018-11-10T07:07:35.540Z,17.27
2018-11-10T07:10:04.303Z,30.00
2018-11-10T07:12:32.731Z,27.50
2018-11-10T07:15:01.145Z,29.33
2018-11-10T07:17:29.579Z,22.60
2018-11-10T07:19:57.980Z,21.13
2018-11-10T07:22:26.388Z,26.67
2018-11-10T07:24:54.475Z,28.77
2018-11-10T07:27:22.877Z,22.47
2018-11-10T07:29:51.302Z,20.80
2018-11-10T07:32:19.411Z,19.70
2018-11-10T07:34:47.535Z,23.23
2018-11-10T07:37:15.948Z,28.53
2018-11-10T07:39:44.072Z,17.70
2018-11-10T07:42:12.480Z,22.03
2018-11-10T07:44:40.901Z,16.23
2018-11-10T07:47:09.285Z,14.87
2018-11-10T07:49:37.664Z,17.30
2018-11-10T07:52:06.659Z,16.03
2018-11-10T07:54:35.040Z,18.47
2018-11-10T07:57:04.456Z,17.70
2018-11-10T07:59:32.849Z,14.97
2018-11-10T08:02:01.232Z,23.13
2018-11-10T08:04:29.754Z,19.27
2018-11-10T08:06:58.088Z,17.03
2018-11-10T08:09:26.507Z,13.93
2018-11-10T08:11:54.974Z,16.97
2018-11-10T08:14:23.354Z,15.90
2018-11-10T08:16:51.779Z,16.07
2018-11-10T08:19:20.180Z,13.00
2018-11-10T08:21:48.593Z,16.00
2018-11-10T08:24:17.011Z,14.68
2018-11-10T08:26:45.392Z,13.50
2018-11-10T08:29:13.806Z,14.50
2018-11-10T08:31:42.199Z,12.00
2018-11-10T08:34:10.607Z,13.50
2018-11-10T08:36:38.707Z,13.08
2018-11-10T08:39:08.819Z,15.07
2018-11-10T08:41:37.451Z,9.93
2018-11-10T08:44:05.671Z,10.35
2018-11-10T08:46:34.092Z,11.67
2018-11-10T08:49:02.658Z,15.03
2018-11-10T08:51:31.072Z,9.80
2018-11-10T08:53:59.472Z,11.47
2018-11-10T08:56:27.892Z,11.03
2018-11-10T08:58:56.037Z,11.30
2018-11-10T09:01:24.397Z,11.10
2018-11-10T09:03:52.785Z,8.50
2018-11-10T09:06:21.171Z,8.83
2018-11-10T09:08:49.567Z,8.37
2018-11-10T09:11:17.706Z,12.85
2018-11-10T09:13:46.119Z,13.60
2018-11-10T09:16:14.261Z,10.85
2018-11-10T09:18:42.651Z,10.40
2018-11-10T09:21:10.797Z,9.03
2018-11-10T09:23:39.224Z,8.30
2018-11-10T09:26:07.613Z,11.53
2018-11-10T09:28:36.012Z,10.03
2018-11-10T09:31:04.483Z,9.58
2018-11-10T09:33:32.843Z,8.15
2018-11-10T09:36:00.959Z,9.23
2018-11-10T09:38:29.055Z,9.33
2018-11-10T09:40:57.448Z,10.68
2018-11-10T09:43:25.858Z,8.95
2018-11-10T09:45:54.256Z,10.25
2018-11-10T09:48:22.394Z,8.53
2018-11-10T09:50:50.852Z,9.13
2018-11-10T09:53:19.239Z,9.68
2018-11-10T09:55:47.644Z,9.43
2018-11-10T09:58:15.741Z,10.45
2018-11-10T10:00:44.128Z,8.05
2018-11-10T10:03:12.507Z,8.75
2018-11-10T10:05:40.965Z,7.92
2018-11-10T10:08:09.060Z,11.05
2018-11-10T10:10:37.496Z,8.85
2018-11-10T10:13:05.931Z,11.85
2018-11-10T10:15:34.348Z,8.33
2018-11-10T10:18:02.734Z,6.72
2018-11-10T10:20:31.156Z,7.45
2018-11-10T10:22:59.250Z,8.05
2018-11-10T10:25:27.663Z,8.58
2018-11-10T10:27:56.076Z,7.65
2018-11-10T10:30:25.415Z,10.40
2018-11-10T10:32:53.559Z,7.33
2018-11-10T10:35:22.162Z,7.22
2018-11-10T10:37:50.930Z,10.40
2018-11-10T10:40:19.364Z,8.53
2018-11-10T10:42:48.168Z,9.03
2018-11-10T10:45:17.749Z,9.45
2018-11-10T10:47:46.358Z,10.23
2018-11-10T10:50:16.987Z,21.35
2018-11-10T10:52:45.395Z,11.93
2018-11-10T10:55:15.090Z,10.05
2018-11-10T10:57:44.267Z,9.78
2018-11-10T11:00:18.688Z,11.18
2018-11-10T11:02:52.639Z,10.30
2018-11-10T11:05:26.146Z,10.63
2018-11-10T11:07:54.744Z,9.85
2018-11-10T11:10:23.085Z,8.68
2018-11-10T11:12:51.462Z,10.10
2018-11-10T11:15:20.041Z,10.50
2018-11-10T11:17:48.035Z,13.20
2018-11-10T11:20:16.462Z,12.23
2018-11-10T11:22:45.521Z,11.55
2018-11-10T11:25:14.384Z,11.35
2018-11-10T11:27:43.485Z,11.08
2018-11-10T11:30:11.966Z,13.53
2018-11-10T11:32:40.375Z,11.90
2018-11-10T11:35:09.615Z,11.30
2018-11-10T11:37:37.949Z,13.72
2018-11-10T11:40:08.207Z,10.80
2018-11-10T11:42:36.625Z,17.02
2018-11-10T11:45:06.000Z,13.05
2018-11-10T11:47:34.410Z,12.45
2018-11-10T11:50:02.869Z,13.00
2018-11-10T11:52:31.297Z,13.72
2018-11-10T11:54:59.659Z,14.83
2018-11-10T11:57:28.327Z,13.30
2018-11-10T11:59:56.729Z,12.80
2018-11-10T12:02:25.123Z,13.50
2018-11-10T12:04:53.531Z,16.07
2018-11-10T12:07:21.945Z,12.28
2018-11-10T12:09:50.346Z,12.35
2018-11-10T12:12:18.780Z,15.38
2018-11-10T12:14:47.303Z,15.38
2018-11-10T12:17:15.703Z,12.55
2018-11-10T12:19:44.083Z,14.10
2018-11-10T12:22:12.235Z,14.35
2018-11-10T12:24:40.628Z,13.40
2018-11-10T12:27:08.763Z,16.55
2018-11-10T12:29:37.140Z,10.38
2018-11-10T12:32:05.649Z,10.15
2018-11-10T12:34:34.064Z,11.15
2018-11-10T12:37:02.483Z,9.05
2018-11-10T12:39:30.905Z,14.15
2018-11-10T12:41:59.313Z,13.50
2018-11-10T12:44:27.700Z,12.80
2018-11-10T12:46:56.140Z,10.38
2018-11-10T12:49:24.215Z,12.03
2018-11-10T12:51:52.656Z,11.97
2018-11-10T12:54:21.069Z,10.32
2018-11-10T12:56:49.481Z,10.93
2018-11-10T12:59:17.867Z,11.22
2018-11-10T13:01:46.276Z,11.40
2018-11-10T13:04:14.719Z,10.15
2018-11-10T13:06:43.102Z,9.73
2018-11-10T13:09:11.694Z,10.45
2018-11-10T13:11:40.032Z,9.50
2018-11-10T13:14:09.808Z,10.78
2018-11-10T13:16:38.317Z,11.25
2018-11-10T13:19:08.199Z,8.43
2018-11-10T13:21:36.691Z,11.22
2018-11-10T13:24:05.638Z,9.48
2018-11-10T13:26:34.073Z,7.60
2018-11-10T13:29:02.488Z,9.95
2018-11-10T13:31:30.652Z,7.75
2018-11-10T13:33:59.004Z,10.13
2018-11-10T13:36:27.412Z,8.00
2018-11-10T13:38:55.786Z,8.85
2018-11-10T13:41:24.195Z,9.25
2018-11-10T13:43:52.596Z,8.15
2018-11-10T13:46:21.020Z,7.53
2018-11-10T13:48:49.435Z,8.63
2018-11-10T13:51:17.960Z,8.65
2018-11-10T13:53:46.175Z,6.67
2018-11-10T13:56:14.570Z,9.78
2018-11-10T13:58:42.961Z,7.40
2018-11-10T14:01:11.083Z,5.30
2018-11-10T14:03:39.463Z,11.80
2018-11-10T14:06:07.901Z,6.30
2018-11-10T14:08:36.287Z,8.05
2018-11-10T14:11:04.731Z,6.10
2018-11-10T14:13:33.123Z,7.70
2018-11-10T14:16:01.254Z,6.55
2018-11-10T14:18:29.715Z,7.15
2018-11-10T14:20:58.152Z,7.28
2018-11-10T14:23:26.559Z,8.08
2018-11-10T14:25:54.976Z,10.18
2018-11-10T14:28:23.391Z,7.28
2018-11-10T14:30:51.796Z,8.10
2018-11-10T14:33:20.311Z,8.23
2018-11-10T14:35:48.393Z,8.53
2018-11-10T14:38:16.800Z,8.43
2018-11-10T14:40:45.208Z,10.82
2018-11-10T14:43:13.631Z,8.85
2018-11-10T14:45:42.033Z,11.53
2018-11-10T14:48:10.444Z,9.25
2018-11-10T14:50:38.857Z,11.85
2018-11-10T14:53:07.423Z,10.40
2018-11-10T14:55:35.703Z,9.93
2018-11-10T14:58:04.176Z,11.33
2018-11-10T15:00:32.564Z,10.85
2018-11-10T15:03:00.968Z,13.22
2018-11-10T15:05:29.372Z,14.23
2018-11-10T15:07:57.784Z,18.67
2018-11-10T15:10:26.344Z,23.35
2018-11-10T15:12:54.792Z,23.83
2018-11-10T15:15:23.205Z,27.67
2018-11-10T15:17:51.767Z,26.05
2018-11-10T15:20:20.497Z,23.27
2018-11-10T15:22:48.923Z,23.22
2018-11-10T15:25:18.856Z,25.30
2018-11-10T15:27:47.246Z,23.90
2018-11-10T15:30:16.928Z,28.27
2018-11-10T15:32:46.009Z,26.50
2018-11-10T15:35:15.311Z,23.18
2018-11-10T15:37:44.986Z,27.30
2018-11-10T15:40:14.181Z,28.35
2018-11-10T15:42:42.681Z,28.52
2018-11-10T15:45:12.264Z,27.13
2018-11-10T15:47:43.179Z,27.87
2018-11-10T15:50:13.146Z,28.20
2018-11-10T15:52:41.544Z,28.02
2018-11-10T15:55:10.526Z,28.77
2018-11-10T15:57:40.940Z,32.50
2018-11-10T16:00:12.680Z,24.82
2018-11-10T16:02:41.466Z,34.10
2018-11-10T16:05:10.764Z,28.17
2018-11-10T16:07:39.428Z,31.40
2018-11-10T16:10:08.056Z,31.25
2018-11-10T16:12:36.791Z,28.32
2018-11-10T16:15:07.164Z,30.90
2018-11-10T16:17:35.307Z,26.55
2018-11-10T16:20:03.884Z,25.20
2018-11-10T16:22:32.282Z,25.35
2018-11-10T16:25:00.710Z,23.30
2018-11-10T16:27:29.120Z,22.20
2018-11-10T16:29:57.672Z,26.27
2018-11-10T16:32:26.079Z,27.05
2018-11-10T16:34:54.482Z,26.10
2018-11-10T16:37:22.943Z,27.10
2018-11-10T16:39:51.308Z,28.62
2018-11-10T16:42:19.449Z,26.15
2018-11-10T16:44:47.937Z,27.62
2018-11-10T16:47:16.351Z,28.47
2018-11-10T16:49:44.800Z,26.68
2018-11-10T16:52:13.187Z,32.78
2018-11-10T16:54:41.612Z,27.17
2018-11-10T16:57:10.005Z,31.62
2018-11-10T16:59:38.123Z,29.72
2018-11-10T17:02:06.543Z,28.30
2018-11-10T17:04:34.972Z,28.30
2018-11-10T17:07:03.372Z,30.97
2018-11-10T17:09:31.787Z,31.85
2018-11-10T17:12:00.201Z,34.85
2018-11-10T17:14:28.327Z,28.55
2018-11-10T17:16:56.623Z,28.00
2018-11-10T17:19:25.035Z,27.52
2018-11-10T17:21:53.676Z,26.10
2018-11-10T17:24:21.956Z,27.77
2018-11-10T17:26:50.368Z,27.05
2018-11-10T17:29:18.816Z,24.75
2018-11-10T17:31:47.194Z,27.22
2018-11-10T17:34:15.318Z,25.43
2018-11-10T17:36:43.711Z,26.87
2018-11-10T17:39:11.945Z,24.43
2018-11-10T17:41:40.224Z,31.57
2018-11-10T17:44:08.649Z,31.33
2018-11-10T17:46:37.056Z,26.68
2018-11-10T17:49:05.443Z,25.72
2018-11-10T17:51:33.843Z,26.52
2018-11-10T17:54:02.254Z,32.17
2018-11-10T17:56:30.678Z,25.65
2018-11-10T17:58:59.050Z,30.20
2018-11-10T18:01:27.524Z,28.40
2018-11-10T18:03:55.984Z,24.15
2018-11-10T18:06:24.326Z,29.23
2018-11-10T18:08:52.687Z,40.67
2018-11-10T18:11:21.091Z,26.52
2018-11-10T18:13:49.491Z,29.07
2018-11-10T18:16:17.908Z,28.40
2018-11-10T18:18:46.354Z,25.37
2018-11-10T18:21:14.755Z,29.10
2018-11-10T18:23:43.160Z,38.70
2018-11-10T18:26:11.571Z,26.07
2018-11-10T18:28:39.984Z,27.25
2018-11-10T18:31:08.405Z,25.97
2018-11-10T18:33:36.835Z,25.17
2018-11-10T18:36:05.392Z,30.30
2018-11-10T18:38:33.796Z,29.95
2018-11-10T18:41:02.203Z,31.02
2018-11-10T18:43:30.635Z,27.23
2018-11-10T18:45:59.036Z,27.98
2018-11-10T18:48:27.449Z,27.52
2018-11-10T18:50:55.888Z,23.23
2018-11-10T18:53:24.281Z,21.77
2018-11-10T18:55:52.688Z,20.48
2018-11-10T18:58:21.160Z,24.25
2018-11-10T19:00:49.617Z,28.20
2018-11-10T19:03:18.053Z,26.20
2018-11-10T19:05:46.190Z,25.85
2018-11-10T19:08:14.611Z,30.37
2018-11-10T19:10:43.028Z,26.25
2018-11-10T19:13:12.304Z,27.37
2018-11-10T19:15:40.736Z,24.30
2018-11-10T19:18:09.146Z,25.17
2018-11-10T19:20:37.635Z,27.37
2018-11-10T19:23:06.175Z,25.25
2018-11-10T19:25:34.459Z,27.65
2018-11-10T19:28:02.845Z,27.45
2018-11-10T19:30:31.244Z,29.52
2018-11-10T19:32:59.619Z,31.75
2018-11-10T19:35:28.040Z,27.27
2018-11-10T19:37:56.430Z,23.75
2018-11-10T19:40:24.849Z,40.05
2018-11-10T19:42:53.259Z,21.25
2018-11-10T19:45:21.659Z,21.05
2018-11-10T19:47:50.060Z,33.58
2018-11-10T19:50:18.525Z,65.35
2018-11-10T19:52:46.922Z,32.63
2018-11-10T19:55:16.459Z,36.15
2018-11-10T19:57:44.882Z,41.15
2018-11-10T20:00:15.246Z,43.90
2018-11-10T20:02:43.662Z,49.83
2018-11-10T20:05:12.069Z,27.52
2018-11-10T20:07:40.651Z,26.68
2018-11-10T20:10:09.956Z,42.35
2018-11-10T20:12:38.403Z,30.90
2018-11-10T20:15:08.098Z,45.92
2018-11-10T20:17:36.541Z,41.68
2018-11-10T20:20:04.980Z,48.15
2018-11-10T20:22:33.411Z,55.80
2018-11-10T20:25:01.804Z,41.88
2018-11-10T20:27:30.210Z,33.75
2018-11-10T20:29:58.607Z,60.28
2018-11-10T20:32:26.717Z,36.23
2018-11-10T20:34:55.107Z,45.83
2018-11-10T20:37:23.505Z,65.00
2018-11-10T20:39:51.923Z,33.95
2018-11-10T20:42:20.368Z,37.90
2018-11-10T20:44:48.832Z,26.43
2018-11-10T20:47:17.208Z,28.60
2018-11-10T20:49:45.619Z,48.78
2018-11-10T20:52:14.057Z,66.25
2018-11-10T20:54:42.448Z,47.73
2018-11-10T20:57:11.264Z,31.15
2018-11-10T20:59:39.677Z,36.70
2018-11-10T21:02:08.111Z,68.83
2018-11-10T21:04:36.504Z,65.25
2018-11-10T21:07:05.053Z,27.70
2018-11-10T21:09:33.157Z,26.30
2018-11-10T21:12:01.664Z,27.05
2018-11-10T21:14:30.068Z,36.77
2018-11-10T21:16:58.484Z,32.87
2018-11-10T21:19:26.575Z,23.55
2018-11-10T21:21:54.979Z,43.77
2018-11-10T21:24:23.110Z,62.60
2018-11-10T21:26:51.527Z,52.67
2018-11-10T21:29:20.024Z,45.50
2018-11-10T21:31:48.387Z,42.47
2018-11-10T21:34:16.929Z,46.33
2018-11-10T21:36:45.243Z,34.27
2018-11-10T21:39:13.635Z,34.00
2018-11-10T21:41:42.092Z,36.00
2018-11-10T21:44:10.495Z,38.20
2018-11-10T21:46:38.931Z,29.13
2018-11-10T21:49:07.373Z,38.73
2018-11-10T21:51:35.800Z,40.50
2018-11-10T21:54:04.212Z,33.73
2018-11-10T21:56:32.637Z,35.80
2018-11-10T21:59:01.060Z,28.97
2018-11-10T22:01:29.477Z,25.33
2018-11-10T22:03:57.899Z,35.53
2018-11-10T22:06:26.331Z,21.52
2018-11-10T22:08:54.826Z,31.13
2018-11-10T22:11:23.196Z,30.15
2018-11-10T22:13:51.576Z,23.77
2018-11-10T22:16:19.996Z,24.77
2018-11-10T22:18:48.404Z,36.17
2018-11-10T22:21:16.808Z,31.10
2018-11-10T22:23:45.263Z,29.53
2018-11-10T22:26:13.701Z,38.67
2018-11-10T22:28:41.827Z,30.13
2018-11-10T22:31:10.222Z,37.28
2018-11-10T22:33:38.675Z,33.30
2018-11-10T22:36:07.091Z,33.27
2018-11-10T22:38:35.497Z,23.65
2018-11-10T22:41:03.882Z,33.53
2018-11-10T22:43:32.285Z,31.90
2018-11-10T22:46:00.663Z,27.47
2018-11-10T22:48:29.081Z,29.80
2018-11-10T22:50:57.491Z,31.07
2018-11-10T22:53:25.904Z,31.07
2018-11-10T22:55:54.319Z,34.20
2018-11-10T22:58:22.803Z,33.43
2018-11-10T23:00:56.476Z,36.43
2018-11-10T23:03:24.943Z,35.10
2018-11-10T23:05:53.336Z,34.40
2018-11-10T23:08:21.829Z,28.10
2018-11-10T23:10:50.253Z,27.63
2018-11-10T23:13:18.704Z,29.27
2018-11-10T23:15:47.113Z,33.93
2018-11-10T23:18:15.247Z,29.30
2018-11-10T23:20:43.680Z,33.90
2018-11-10T23:23:11.802Z,28.03
2018-11-10T23:25:40.229Z,32.43
2018-11-10T23:28:08.699Z,28.70
2018-11-10T23:30:37.131Z,43.90
2018-11-10T23:33:05.771Z,18.03
2018-11-10T23:35:33.858Z,29.93
2018-11-10T23:38:01.984Z,35.77
2018-11-10T23:40:30.408Z,32.57
2018-11-10T23:42:58.837Z,33.80
2018-11-10T23:45:27.233Z,32.27
2018-11-10T23:47:55.667Z,37.37
2018-11-10T23:50:23.767Z,29.70
2018-11-10T23:52:51.915Z,36.03
2018-11-10T23:55:20.320Z,23.37
2018-11-10T23:57:48.735Z,19.00
